createdAt,value
2018-01-17T00:02:25.690Z,77.41
2018-01-17T00:04:53.229Z,78.15
2018-01-17T00:07:20.810Z,78.32
2018-01-17T00:09:49.035Z,78.60
2018-01-17T00:12:16.566Z,78.73
2018-01-17T00:14:44.169Z,78.40
2018-01-17T00:17:11.780Z,78.57
2018-01-17T00:19:39.384Z,78.33
2018-01-17T00:22:06.914Z,78.24
2018-01-17T00:24:34.492Z,78.33
2018-01-17T00:27:02.060Z,78.68
2018-01-17T00:29:29.598Z,79.10
2018-01-17T00:31:57.141Z,79.52
2018-01-17T00:34:24.684Z,79.86
2018-01-17T00:36:52.286Z,79.96
2018-01-17T00:39:19.822Z,80.21
2018-01-17T00:41:47.462Z,80.67
2018-01-17T00:44:14.998Z,81.35
2018-01-17T00:46:42.534Z,81.89
2018-01-17T00:49:10.139Z,82.21
2018-01-17T00:51:37.689Z,82.19
2018-01-17T00:54:05.265Z,82.73
2018-01-17T00:56:32.802Z,83.13
2018-01-17T00:59:00.337Z,83.41
2018-01-17T01:01:27.882Z,83.88
2018-01-17T01:03:55.480Z,84.34
2018-01-17T01:06:23.058Z,84.50
2018-01-17T01:08:50.595Z,84.59
2018-01-17T01:11:18.128Z,84.80
2018-01-17T01:13:45.670Z,84.91
2018-01-17T01:16:13.206Z,85.02
2018-01-17T01:18:40.810Z,85.27
2018-01-17T01:21:08.353Z,85.21
2018-01-17T01:23:36.003Z,85.25
2018-01-17T01:26:03.599Z,85.33
2018-01-17T01:28:31.134Z,85.89
2018-01-17T01:30:58.674Z,86.04
2018-01-17T01:33:26.274Z,86.50
2018-01-17T01:35:53.814Z,86.59
2018-01-17T01:38:21.356Z,86.51
2018-01-17T01:40:48.942Z,86.46
2018-01-17T01:43:16.474Z,86.54
2018-01-17T01:45:44.069Z,86.46
2018-01-17T01:48:11.609Z,86.44
2018-01-17T01:50:39.202Z,86.42
2018-01-17T01:53:06.758Z,86.35
2018-01-17T01:55:34.292Z,86.20
2018-01-17T01:58:01.874Z,86.08
2018-01-17T02:00:29.410Z,85.79
2018-01-17T02:02:57.007Z,85.59
2018-01-17T02:05:24.566Z,85.61
2018-01-17T02:07:52.098Z,85.61
2018-01-17T02:10:19.646Z,85.53
2018-01-17T02:12:47.229Z,85.44
2018-01-17T02:15:14.810Z,85.40
2018-01-17T02:17:42.342Z,85.36
2018-01-17T02:20:09.997Z,85.48
2018-01-17T02:22:37.546Z,85.65
2018-01-17T02:25:05.081Z,85.82
2018-01-17T02:27:32.695Z,85.91
2018-01-17T02:30:00.235Z,85.94
2018-01-17T02:32:27.813Z,85.77
2018-01-17T02:34:55.351Z,85.74
2018-01-17T02:37:22.951Z,85.52
2018-01-17T02:40:02.195Z,85.36
2018-01-17T02:42:29.735Z,85.18
2018-01-17T02:44:57.282Z,85.31
2018-01-17T02:47:24.887Z,85.46
2018-01-17T02:49:52.430Z,85.43
2018-01-17T02:52:19.974Z,85.54
2018-01-17T02:54:48.833Z,85.47
2018-01-17T02:57:16.438Z,85.31
2018-01-17T02:59:45.751Z,85.39
2018-01-17T03:02:13.342Z,85.57
2018-01-17T03:04:40.882Z,85.86
2018-01-17T03:07:08.482Z,86.27
2018-01-17T03:09:36.038Z,86.62
2018-01-17T03:12:03.647Z,86.82
2018-01-17T03:14:31.194Z,86.87
2018-01-17T03:16:58.793Z,86.75
2018-01-17T03:19:26.374Z,86.78
2018-01-17T03:21:53.971Z,86.86
2018-01-17T03:24:21.567Z,86.81
2018-01-17T03:26:49.170Z,86.74
2018-01-17T03:29:16.717Z,86.78
2018-01-17T03:31:44.326Z,86.79
2018-01-17T03:34:11.867Z,86.73
2018-01-17T03:36:39.503Z,86.18
2018-01-17T03:39:07.042Z,86.09
2018-01-17T03:41:34.574Z,86.12
2018-01-17T03:44:02.131Z,86.28
2018-01-17T03:46:29.665Z,86.31
2018-01-17T03:48:57.270Z,86.14
2018-01-17T03:51:24.805Z,85.90
2018-01-17T03:53:52.487Z,85.74
2018-01-17T03:56:20.026Z,85.69
2018-01-17T03:58:47.626Z,85.69
2018-01-17T04:01:15.175Z,85.98
2018-01-17T04:03:42.705Z,86.00
2018-01-17T04:06:10.259Z,85.87
2018-01-17T04:08:37.797Z,86.01
2018-01-17T04:11:05.379Z,86.14
2018-01-17T04:13:32.930Z,86.32
2018-01-17T04:16:00.522Z,86.37
2018-01-17T04:18:28.123Z,86.55
2018-01-17T04:20:55.719Z,86.29
2018-01-17T04:23:23.278Z,85.90
2018-01-17T04:25:51.057Z,85.66
2018-01-17T04:28:18.666Z,85.85
2018-01-17T04:30:46.263Z,86.74
2018-01-17T04:33:13.797Z,87.15
2018-01-17T04:35:41.402Z,86.96
2018-01-17T04:38:08.942Z,87.29
2018-01-17T04:40:36.481Z,87.75
2018-01-17T04:43:04.111Z,88.05
2018-01-17T04:45:31.693Z,88.15
2018-01-17T04:47:59.290Z,87.87
2018-01-17T04:50:26.834Z,87.86
2018-01-17T04:52:54.441Z,88.04
2018-01-17T04:55:22.038Z,88.14
2018-01-17T04:57:49.643Z,88.17
2018-01-17T05:00:17.226Z,88.04
2018-01-17T05:02:44.809Z,88.23
2018-01-17T05:05:12.451Z,88.27
2018-01-17T05:07:39.998Z,88.23
2018-01-17T05:10:07.548Z,88.03
2018-01-17T05:12:35.085Z,87.88
2018-01-17T05:15:02.712Z,87.66
2018-01-17T05:17:30.254Z,87.42
2018-01-17T05:19:57.846Z,87.60
2018-01-17T05:22:25.386Z,87.42
2018-01-17T05:24:53.094Z,87.33
2018-01-17T05:27:20.707Z,87.12
2018-01-17T05:29:48.246Z,86.75
2018-01-17T05:32:15.850Z,86.59
2018-01-17T05:34:43.394Z,86.41
2018-01-17T05:37:11.038Z,86.34
2018-01-17T05:39:38.574Z,86.96
2018-01-17T05:42:06.184Z,87.33
2018-01-17T05:44:33.754Z,87.53
2018-01-17T05:47:01.294Z,87.64
2018-01-17T05:49:28.851Z,87.83
2018-01-17T05:51:56.454Z,88.06
2018-01-17T05:54:24.102Z,88.07
2018-01-17T05:56:51.698Z,87.72
2018-01-17T05:59:19.238Z,87.18
2018-01-17T06:01:46.790Z,86.38
2018-01-17T06:04:14.331Z,86.25
2018-01-17T06:06:41.870Z,86.02
2018-01-17T06:09:09.410Z,85.78
2018-01-17T06:11:36.994Z,85.50
2018-01-17T06:14:04.540Z,85.55
2018-01-17T06:16:32.081Z,85.34
2018-01-17T06:18:59.693Z,84.90
2018-01-17T06:21:27.298Z,84.56
2018-01-17T06:23:54.906Z,84.23
2018-01-17T06:26:22.442Z,84.04
2018-01-17T06:28:50.029Z,83.69
2018-01-17T06:31:17.630Z,83.62
2018-01-17T06:33:45.174Z,83.96
2018-01-17T06:36:12.722Z,83.77
2018-01-17T06:38:40.331Z,83.26
2018-01-17T06:41:07.942Z,82.67
2018-01-17T06:43:35.481Z,80.82
2018-01-17T06:46:03.127Z,80.01
2018-01-17T06:48:30.724Z,79.92
2018-01-17T06:50:58.330Z,79.50
2018-01-17T06:53:25.873Z,79.54
2018-01-17T06:55:53.454Z,79.48
2018-01-17T06:58:21.062Z,79.34
2018-01-17T07:00:48.606Z,78.64
2018-01-17T07:03:16.257Z,78.29
2018-01-17T07:05:43.799Z,78.12
2018-01-17T07:08:11.337Z,77.93
2018-01-17T07:10:38.982Z,77.93
2018-01-17T07:13:06.631Z,77.73
2018-01-17T07:15:34.278Z,77.45
2018-01-17T07:18:01.823Z,77.41
2018-01-17T07:20:29.450Z,77.32
2018-01-17T07:22:56.998Z,76.88
2018-01-17T07:25:24.533Z,76.65
2018-01-17T07:27:52.137Z,76.30
2018-01-17T07:30:19.735Z,75.84
2018-01-17T07:32:47.322Z,76.39
2018-01-17T07:35:14.974Z,76.52
2018-01-17T07:37:42.506Z,75.90
2018-01-17T07:40:10.051Z,75.52
2018-01-17T07:42:37.646Z,75.56
2018-01-17T07:45:05.311Z,75.69
2018-01-17T07:47:32.846Z,74.82
2018-01-17T07:50:00.441Z,75.10
2018-01-17T07:52:27.985Z,74.12
2018-01-17T07:54:55.557Z,73.45
2018-01-17T07:57:23.102Z,73.32
2018-01-17T07:59:50.692Z,72.93
2018-01-17T08:02:18.331Z,72.55
2018-01-17T08:04:45.873Z,72.17
2018-01-17T08:07:13.467Z,72.56
2018-01-17T08:09:41.079Z,71.84
2018-01-17T08:12:08.611Z,71.44
2018-01-17T08:14:36.154Z,70.97
2018-01-17T08:17:03.687Z,70.55
2018-01-17T08:19:31.297Z,70.13
2018-01-17T08:21:58.899Z,69.82
2018-01-17T08:24:26.440Z,69.51
2018-01-17T08:26:54.046Z,68.62
2018-01-17T08:29:21.587Z,68.67
2018-01-17T08:31:49.185Z,68.05
2018-01-17T08:34:16.734Z,68.35
2018-01-17T08:36:44.371Z,68.17
2018-01-17T08:39:11.903Z,67.64
2018-01-17T08:41:39.498Z,67.44
2018-01-17T08:44:07.419Z,66.45
2018-01-17T08:46:34.949Z,66.27
2018-01-17T08:49:02.587Z,65.70
2018-01-17T08:51:30.130Z,65.60
2018-01-17T08:53:57.667Z,64.86
2018-01-17T08:56:25.211Z,63.28
2018-01-17T08:58:52.830Z,62.37
2018-01-17T09:01:20.483Z,62.38
2018-01-17T09:03:48.094Z,62.03
2018-01-17T09:06:15.629Z,60.27
2018-01-17T09:08:43.190Z,59.55
2018-01-17T09:11:10.725Z,58.75
2018-01-17T09:13:38.370Z,58.50
2018-01-17T09:16:05.965Z,59.66
2018-01-17T09:18:33.506Z,59.06
2018-01-17T09:21:01.114Z,59.04
2018-01-17T09:23:28.650Z,59.89
2018-01-17T09:25:56.286Z,58.64
2018-01-17T09:28:23.827Z,59.14
2018-01-17T09:30:51.361Z,59.13
2018-01-17T09:33:18.898Z,58.63
2018-01-17T09:35:46.430Z,57.40
2018-01-17T09:38:14.070Z,56.31
2018-01-17T09:40:41.612Z,55.65
2018-01-17T09:43:09.231Z,55.58
2018-01-17T09:45:36.791Z,54.00
2018-01-17T09:48:04.396Z,53.55
2018-01-17T09:50:32.047Z,52.52
2018-01-17T09:52:59.644Z,51.41
2018-01-17T09:55:27.183Z,51.95
2018-01-17T09:57:54.792Z,51.05
2018-01-17T10:00:22.331Z,49.31
2018-01-17T10:02:49.922Z,48.00
2018-01-17T10:05:17.474Z,46.88
2018-01-17T10:07:45.010Z,46.08
2018-01-17T10:10:12.626Z,44.47
2018-01-17T10:12:40.167Z,44.15
2018-01-17T10:15:07.782Z,43.90
2018-01-17T10:17:35.339Z,43.78
2018-01-17T10:20:02.960Z,42.72
2018-01-17T10:22:30.520Z,42.74
2018-01-17T10:24:58.072Z,43.26
2018-01-17T10:27:25.694Z,43.94
2018-01-17T10:29:53.308Z,43.23
2018-01-17T10:32:20.911Z,42.88
2018-01-17T10:34:48.533Z,42.48
2018-01-17T10:37:16.070Z,42.96
2018-01-17T10:39:43.678Z,42.75
2018-01-17T10:42:11.206Z,42.62
2018-01-17T10:44:38.795Z,42.87
2018-01-17T10:47:06.395Z,41.62
2018-01-17T10:49:33.991Z,40.38
2018-01-17T10:52:01.621Z,38.95
2018-01-17T10:54:29.211Z,38.67
2018-01-17T10:56:56.804Z,38.96
2018-01-17T10:59:24.342Z,39.01
2018-01-17T11:01:51.914Z,39.00
2018-01-17T11:04:19.555Z,38.71
2018-01-17T11:06:47.090Z,39.68
2018-01-17T11:09:14.680Z,39.61
2018-01-17T11:11:42.222Z,38.74
2018-01-17T11:14:09.754Z,38.60
2018-01-17T11:16:37.391Z,38.72
2018-01-17T11:19:04.987Z,40.03
2018-01-17T11:21:32.515Z,39.52
2018-01-17T11:24:00.055Z,39.51
2018-01-17T11:26:27.593Z,39.13
2018-01-17T11:28:55.178Z,39.30
2018-01-17T11:31:22.725Z,38.53
2018-01-17T11:33:50.274Z,38.18
2018-01-17T11:36:17.876Z,37.54
2018-01-17T11:38:45.411Z,38.07
2018-01-17T11:41:12.987Z,37.88
2018-01-17T11:43:40.530Z,38.47
2018-01-17T11:46:08.078Z,37.67
2018-01-17T11:48:35.614Z,39.19
2018-01-17T11:51:03.204Z,40.22
2018-01-17T11:53:30.786Z,41.95
2018-01-17T11:55:58.383Z,42.89
2018-01-17T11:58:25.915Z,44.16
2018-01-17T12:00:53.468Z,45.04
2018-01-17T12:03:20.993Z,46.35
2018-01-17T12:05:48.588Z,45.50
2018-01-17T12:08:16.136Z,45.77
2018-01-17T12:10:43.676Z,46.23
2018-01-17T12:13:11.279Z,45.09
2018-01-17T12:15:38.871Z,45.38
2018-01-17T12:18:06.445Z,45.21
2018-01-17T12:20:34.006Z,45.01
2018-01-17T12:23:01.535Z,44.58
2018-01-17T12:25:29.171Z,45.09
2018-01-17T12:27:56.766Z,45.08
2018-01-17T12:30:24.430Z,45.85
2018-01-17T12:32:51.969Z,46.07
2018-01-17T12:35:19.568Z,46.79
2018-01-17T12:37:47.114Z,47.20
2018-01-17T12:40:14.646Z,47.68
2018-01-17T12:42:42.262Z,48.14
2018-01-17T12:45:09.798Z,48.85
2018-01-17T12:47:37.342Z,48.86
2018-01-17T12:50:04.892Z,49.04
2018-01-17T12:52:32.509Z,49.88
2018-01-17T12:55:00.142Z,50.15
2018-01-17T12:57:27.682Z,49.77
2018-01-17T12:59:55.218Z,49.12
2018-01-17T13:02:22.820Z,48.53
2018-01-17T13:04:50.406Z,48.94
2018-01-17T13:07:18.007Z,49.58
2018-01-17T13:09:45.537Z,49.91
2018-01-17T13:12:13.117Z,49.92
2018-01-17T13:14:40.723Z,49.97
2018-01-17T13:17:08.261Z,50.14
2018-01-17T13:19:35.866Z,51.15
2018-01-17T13:22:03.454Z,51.13
2018-01-17T13:24:31.070Z,51.22
2018-01-17T13:26:58.618Z,51.47
2018-01-17T13:29:26.206Z,50.41
2018-01-17T13:31:53.790Z,50.72
2018-01-17T13:34:21.388Z,51.17
2018-01-17T13:36:48.942Z,51.18
2018-01-17T13:39:16.495Z,51.03
2018-01-17T13:41:44.090Z,51.18
2018-01-17T13:44:11.730Z,51.13
2018-01-17T13:46:39.287Z,51.50
2018-01-17T13:49:06.898Z,50.92
2018-01-17T13:51:34.454Z,51.18
2018-01-17T13:54:02.047Z,50.72
2018-01-17T13:56:29.686Z,50.86
2018-01-17T13:58:57.233Z,51.11
2018-01-17T14:01:24.839Z,51.81
2018-01-17T14:03:52.402Z,51.61
2018-01-17T14:06:19.934Z,51.59
2018-01-17T14:08:47.597Z,52.01
2018-01-17T14:11:15.150Z,52.51
2018-01-17T14:13:42.677Z,53.23
2018-01-17T14:16:10.214Z,53.35
2018-01-17T14:18:37.806Z,53.16
2018-01-17T14:21:05.386Z,53.52
2018-01-17T14:23:32.930Z,53.62
2018-01-17T14:26:00.486Z,53.92
2018-01-17T14:28:28.133Z,54.28
2018-01-17T14:30:55.690Z,55.13
2018-01-17T14:33:23.277Z,55.38
2018-01-17T14:35:50.817Z,55.63
2018-01-17T14:38:18.358Z,55.94
2018-01-17T14:40:45.901Z,56.19
2018-01-17T14:43:16.450Z,56.27
2018-01-17T14:45:44.111Z,56.05
2018-01-17T14:48:11.651Z,55.92
2018-01-17T14:50:39.182Z,56.63
2018-01-17T14:53:06.734Z,56.46
2018-01-17T14:55:34.360Z,56.55
2018-01-17T14:58:02.006Z,57.05
2018-01-17T15:00:29.607Z,57.36
2018-01-17T15:02:57.202Z,56.71
2018-01-17T15:05:24.802Z,57.44
2018-01-17T15:07:52.346Z,58.07
2018-01-17T15:10:19.927Z,58.02
2018-01-17T15:12:47.463Z,58.12
2018-01-17T15:15:14.997Z,58.18
2018-01-17T15:17:42.587Z,58.44
2018-01-17T15:20:10.154Z,58.87
2018-01-17T15:22:37.774Z,59.04
2018-01-17T15:25:05.406Z,59.19
2018-01-17T15:27:32.991Z,59.51
2018-01-17T15:30:00.581Z,59.39
2018-01-17T15:32:28.234Z,59.97
2018-01-17T15:34:55.870Z,60.63
2018-01-17T15:37:24.331Z,60.59
2018-01-17T15:39:51.890Z,60.86
2018-01-17T15:42:19.434Z,61.28
2018-01-17T15:44:47.030Z,60.76
2018-01-17T15:47:14.610Z,61.13
2018-01-17T15:49:42.205Z,61.27
2018-01-17T15:52:09.820Z,61.63
2018-01-17T15:54:37.432Z,61.56
2018-01-17T15:57:05.035Z,61.36
2018-01-17T15:59:32.615Z,61.52
2018-01-17T16:02:00.222Z,61.34
2018-01-17T16:04:27.762Z,61.30
2018-01-17T16:06:55.424Z,61.85
2018-01-17T16:09:22.962Z,62.19
2018-01-17T16:11:50.538Z,62.30
2018-01-17T16:14:18.129Z,62.22
2018-01-17T16:16:45.662Z,62.08
2018-01-17T16:19:13.212Z,62.64
2018-01-17T16:21:40.743Z,62.63
2018-01-17T16:24:08.321Z,62.90
2018-01-17T16:26:35.919Z,63.18
2018-01-17T16:29:03.518Z,63.75
2018-01-17T16:31:31.062Z,63.72
2018-01-17T16:33:58.598Z,63.69
2018-01-17T16:36:26.197Z,64.02
2018-01-17T16:38:53.798Z,64.21
2018-01-17T16:41:21.390Z,64.35
2018-01-17T16:43:48.929Z,64.39
2018-01-17T16:46:16.470Z,64.51
2018-01-17T16:48:44.079Z,64.62
2018-01-17T16:51:11.677Z,64.64
2018-01-17T16:53:39.214Z,64.82
2018-01-17T16:56:06.922Z,65.05
2018-01-17T16:58:34.462Z,65.33
2018-01-17T17:01:02.056Z,65.67
2018-01-17T17:03:29.614Z,65.92
2018-01-17T17:05:57.150Z,66.27
2018-01-17T17:08:24.754Z,66.57
2018-01-17T17:10:52.315Z,66.73
2018-01-17T17:13:20.025Z,66.61
2018-01-17T17:15:47.634Z,67.17
2018-01-17T17:18:15.165Z,68.60
2018-01-17T17:20:42.771Z,69.72
2018-01-17T17:23:10.310Z,70.00
2018-01-17T17:25:37.950Z,71.37
2018-01-17T17:28:05.501Z,72.92
2018-01-17T17:30:33.054Z,73.62
2018-01-17T17:33:00.655Z,73.54
2018-01-17T17:35:28.244Z,72.57
2018-01-17T17:37:55.782Z,72.34
2018-01-17T17:40:23.322Z,71.01
2018-01-17T17:42:50.926Z,70.69
2018-01-17T17:45:18.463Z,69.49
2018-01-17T17:47:46.064Z,69.35
2018-01-17T17:50:13.662Z,69.09
2018-01-17T17:52:41.261Z,69.05
2018-01-17T17:55:08.890Z,68.21
2018-01-17T17:57:36.432Z,67.75
2018-01-17T18:00:04.085Z,67.96
2018-01-17T18:02:31.739Z,68.05
2018-01-17T18:04:59.358Z,68.01
2018-01-17T18:07:26.962Z,66.93
2018-01-17T18:09:54.518Z,66.99
2018-01-17T18:12:22.122Z,67.20
2018-01-17T18:14:49.723Z,66.56
2018-01-17T18:17:17.303Z,66.82
2018-01-17T18:19:44.903Z,65.81
2018-01-17T18:22:12.511Z,65.65
2018-01-17T18:24:40.127Z,65.67
2018-01-17T18:27:07.671Z,65.58
2018-01-17T18:29:35.286Z,65.91
2018-01-17T18:32:02.826Z,65.54
2018-01-17T18:34:30.410Z,65.46
2018-01-17T18:36:57.983Z,65.68
2018-01-17T18:39:25.514Z,65.47
2018-01-17T18:41:53.066Z,65.50
2018-01-17T18:44:20.602Z,65.58
2018-01-17T18:46:48.229Z,65.74
2018-01-17T18:49:15.830Z,65.60
2018-01-17T18:51:43.443Z,65.59
2018-01-17T18:54:11.039Z,65.22
2018-01-17T18:56:38.575Z,65.50
2018-01-17T18:59:06.126Z,65.64
2018-01-17T19:01:33.670Z,67.42
2018-01-17T19:04:01.239Z,68.36
2018-01-17T19:06:28.786Z,70.22
2018-01-17T19:08:56.414Z,72.62
2018-01-17T19:11:23.954Z,75.44
2018-01-17T19:13:51.501Z,77.12
2018-01-17T19:16:19.107Z,79.20
2018-01-17T19:18:46.650Z,76.95
2018-01-17T19:21:14.201Z,77.95
2018-01-17T19:23:41.731Z,77.31
2018-01-17T19:26:09.311Z,79.21
2018-01-17T19:28:36.843Z,81.42
2018-01-17T19:31:04.470Z,82.26
2018-01-17T19:33:32.010Z,82.51
2018-01-17T19:35:59.547Z,83.06
2018-01-17T19:38:27.090Z,83.53
2018-01-17T19:40:54.683Z,84.10
2018-01-17T19:43:22.331Z,83.35
2018-01-17T19:45:49.857Z,83.52
2018-01-17T19:48:18.318Z,83.63
2018-01-17T19:50:45.926Z,82.73
2018-01-17T19:53:13.461Z,82.33
2018-01-17T19:55:41.127Z,82.88
2018-01-17T19:58:08.718Z,83.49
2018-01-17T20:00:36.327Z,84.26
2018-01-17T20:03:03.857Z,84.75
2018-01-17T20:05:31.385Z,85.31
2018-01-17T20:07:58.922Z,85.53
2018-01-17T20:10:26.515Z,85.79
2018-01-17T20:12:54.060Z,85.94
2018-01-17T20:15:21.593Z,85.81
2018-01-17T20:17:49.266Z,86.10
2018-01-17T20:20:16.800Z,85.07
2018-01-17T20:22:49.849Z,85.42
2018-01-17T20:25:17.442Z,85.59
2018-01-17T20:27:45.038Z,85.97
2018-01-17T20:30:12.573Z,84.85
2018-01-17T20:32:40.102Z,84.60
2018-01-17T20:35:07.646Z,83.93
2018-01-17T20:37:35.190Z,83.38
2018-01-17T20:40:02.810Z,82.87
2018-01-17T20:42:30.430Z,82.26
2018-01-17T20:44:58.009Z,82.19
2018-01-17T20:47:25.646Z,81.90
2018-01-17T20:49:53.177Z,81.71
2018-01-17T20:52:20.714Z,82.74
2018-01-17T20:54:48.251Z,83.17
2018-01-17T20:57:15.841Z,83.39
2018-01-17T20:59:43.470Z,82.85
2018-01-17T21:02:11.010Z,84.18
2018-01-17T21:04:38.614Z,84.14
2018-01-17T21:07:06.146Z,84.34
2018-01-17T21:09:33.689Z,84.63
2018-01-17T21:12:01.278Z,85.75
2018-01-17T21:14:28.867Z,85.37
2018-01-17T21:16:56.426Z,85.24
2018-01-17T21:19:23.954Z,85.60
2018-01-17T21:21:51.491Z,86.42
2018-01-17T21:24:19.021Z,86.29
2018-01-17T21:26:46.556Z,86.72
2018-01-17T21:29:14.088Z,86.83
2018-01-17T21:31:41.743Z,87.44
2018-01-17T21:34:09.345Z,87.22
2018-01-17T21:36:36.882Z,87.14
2018-01-17T21:39:04.505Z,86.66
2018-01-17T21:41:32.112Z,86.82
2018-01-17T21:44:05.332Z,85.85
2018-01-17T21:46:32.906Z,86.35
2018-01-17T21:49:00.440Z,85.66
2018-01-17T21:51:27.970Z,85.64
2018-01-17T21:53:55.565Z,84.70
2018-01-17T21:56:23.230Z,84.58
2018-01-17T21:58:50.758Z,84.00
2018-01-17T22:01:18.293Z,83.28
2018-01-17T22:03:45.821Z,83.66
2018-01-17T22:06:13.395Z,83.74
2018-01-17T22:08:40.922Z,84.29
2018-01-17T22:11:08.446Z,85.13
2018-01-17T22:13:36.042Z,84.31
2018-01-17T22:16:03.622Z,85.79
2018-01-17T22:18:31.197Z,85.65
2018-01-17T22:20:58.718Z,86.40
2018-01-17T22:23:26.300Z,85.11
2018-01-17T22:25:53.899Z,85.45
2018-01-17T22:28:21.482Z,85.84
2018-01-17T22:30:49.015Z,85.65
2018-01-17T22:33:16.546Z,86.18
2018-01-17T22:35:44.113Z,85.09
2018-01-17T22:38:11.637Z,85.13
2018-01-17T22:40:39.226Z,84.70
2018-01-17T22:43:06.762Z,84.88
2018-01-17T22:45:34.285Z,85.15
2018-01-17T22:48:01.874Z,83.92
2018-01-17T22:50:29.401Z,84.38
2018-01-17T22:52:56.970Z,84.93
2018-01-17T22:55:24.550Z,84.27
2018-01-17T22:57:52.072Z,84.09
2018-01-17T23:00:20.527Z,82.87
2018-01-17T23:02:48.126Z,82.96
2018-01-17T23:05:15.715Z,83.21
2018-01-17T23:07:43.233Z,82.95
2018-01-17T23:10:10.865Z,82.72
2018-01-17T23:12:38.446Z,82.32
2018-01-17T23:15:05.972Z,82.27
2018-01-17T23:17:33.503Z,81.37
2018-01-17T23:20:01.026Z,81.17
2018-01-17T23:22:28.623Z,81.04
2018-01-17T23:24:56.151Z,80.07
2018-01-17T23:27:23.810Z,79.62
2018-01-17T23:29:51.334Z,79.29
2018-01-17T23:32:18.861Z,79.07
2018-01-17T23:34:46.398Z,77.78
2018-01-17T23:37:13.983Z,77.69
2018-01-17T23:39:41.509Z,77.89
2018-01-17T23:42:09.042Z,77.39
2018-01-17T23:44:36.613Z,76.89
2018-01-17T23:47:04.139Z,77.10
2018-01-17T23:49:31.727Z,76.19
2018-01-17T23:51:59.301Z,77.43
2018-01-17T23:54:26.825Z,76.44
2018-01-17T23:56:54.357Z,77.17
2018-01-17T23:59:22.020Z,76.24
